createdAt,value
2023-08-08T00:00:31.665Z,51.80
2023-08-08T00:02:33.389Z,51.84
2023-08-08T00:04:35.101Z,51.84
2023-08-08T00:06:37.536Z,51.75
2023-08-08T00:08:39.224Z,51.74
2023-08-08T00:10:40.820Z,51.92
2023-08-08T00:12:42.495Z,51.66
2023-08-08T00:16:50.705Z,51.97
2023-08-08T00:18:54.513Z,51.88
2023-08-08T00:20:56.208Z,51.69
2023-08-08T00:22:57.830Z,51.72
2023-08-08T00:24:59.631Z,51.93
2023-08-08T00:31:09.772Z,51.92
2023-08-08T00:33:11.540Z,51.59
2023-08-08T00:35:13.256Z,51.63
2023-08-08T00:37:14.810Z,51.69
2023-08-08T00:39:16.337Z,51.81
2023-08-08T00:41:18.006Z,51.73
2023-08-08T00:43:19.662Z,51.84
2023-08-08T00:45:21.412Z,51.70
2023-08-08T00:47:23.193Z,51.82
2023-08-08T00:51:31.400Z,51.64
2023-08-08T00:53:33.295Z,51.56
2023-08-08T00:55:35.003Z,51.77
2023-08-08T00:57:39.256Z,51.68
2023-08-08T00:59:41.034Z,51.86
2023-08-08T01:01:42.729Z,51.46
2023-08-08T01:03:44.511Z,51.60
2023-08-08T01:05:51.512Z,51.64
2023-08-08T01:08:00.706Z,51.83
2023-08-08T01:10:16.322Z,51.77
2023-08-08T01:12:18.038Z,51.78
2023-08-08T01:20:44.388Z,51.91
2023-08-08T01:23:04.971Z,51.86
2023-08-08T01:25:08.262Z,51.91
2023-08-08T01:27:10.394Z,51.77
2023-08-08T01:29:12.213Z,52.08
2023-08-08T01:31:13.926Z,51.86
2023-08-08T01:33:15.789Z,52.01
2023-08-08T01:35:17.793Z,52.02
2023-08-08T01:37:23.975Z,52.05
2023-08-08T01:39:31.471Z,52.18
2023-08-08T01:43:41.879Z,51.93
2023-08-08T01:45:44.608Z,52.21
2023-08-08T01:47:53.009Z,51.98
2023-08-08T01:49:54.674Z,51.98
2023-08-08T01:51:56.572Z,51.80
2023-08-08T01:53:58.750Z,52.26
2023-08-08T01:56:00.436Z,52.11
2023-08-08T01:58:02.069Z,51.92
2023-08-08T02:00:05.540Z,52.15
2023-08-08T02:02:07.702Z,52.17
2023-08-08T02:04:09.440Z,52.12
2023-08-08T02:06:11.029Z,52.12
2023-08-08T02:08:13.960Z,52.25
2023-08-08T02:10:15.725Z,52.01
2023-08-08T02:12:17.694Z,52.32
2023-08-08T02:14:19.327Z,52.33
2023-08-08T02:16:20.905Z,52.09
2023-08-08T02:18:22.575Z,52.35
2023-08-08T02:22:30.851Z,51.99
2023-08-08T02:24:32.449Z,52.21
2023-08-08T02:26:34.020Z,52.17
2023-08-08T02:28:35.632Z,52.31
2023-08-08T02:30:38.405Z,52.27
2023-08-08T02:32:40.144Z,52.13
2023-08-08T02:34:42.270Z,52.32
2023-08-08T02:36:43.889Z,52.14
2023-08-08T02:38:46.404Z,52.04
2023-08-08T02:40:48.064Z,52.13
2023-08-08T02:42:49.695Z,52.11
2023-08-08T02:44:51.355Z,52.10
2023-08-08T02:46:52.989Z,52.05
2023-08-08T02:48:54.637Z,52.19
2023-08-08T02:50:56.201Z,52.04
2023-08-08T02:52:57.823Z,52.02
2023-08-08T02:54:59.442Z,52.18
2023-08-08T02:57:01.478Z,52.34
2023-08-08T02:59:03.082Z,52.15
2023-08-08T03:01:04.811Z,52.02
2023-08-08T03:03:06.393Z,52.29
2023-08-08T03:05:08.644Z,52.15
2023-08-08T03:07:10.797Z,52.41
2023-08-08T03:09:12.463Z,52.04
2023-08-08T03:11:14.032Z,52.31
2023-08-08T03:13:15.615Z,52.24
2023-08-08T03:15:17.323Z,52.46
2023-08-08T03:17:19.064Z,52.53
2023-08-08T03:19:21.151Z,52.46
2023-08-08T03:21:22.800Z,52.24
2023-08-08T03:23:25.021Z,52.11
2023-08-08T03:25:27.076Z,52.38
2023-08-08T03:27:28.663Z,52.10
2023-08-08T03:29:30.326Z,52.41
2023-08-08T03:31:32.084Z,52.45
2023-08-08T03:33:33.700Z,52.31
2023-08-08T03:35:35.593Z,52.11
2023-08-08T03:37:37.405Z,52.25
2023-08-08T03:39:38.974Z,52.54
2023-08-08T03:41:40.702Z,52.31
2023-08-08T03:43:42.316Z,52.26
2023-08-08T03:45:45.551Z,52.56
2023-08-08T03:47:47.226Z,52.58
2023-08-08T03:49:49.134Z,52.55
2023-08-08T03:51:50.933Z,52.40
2023-08-08T03:53:52.505Z,52.55
2023-08-08T03:55:54.348Z,52.43
2023-08-08T03:57:55.957Z,52.59
2023-08-08T03:59:57.708Z,52.50
2023-08-08T04:01:59.444Z,52.55
2023-08-08T04:04:01.242Z,52.68
2023-08-08T04:06:03.078Z,52.41
2023-08-08T04:08:05.264Z,52.47
2023-08-08T04:10:07.645Z,52.69
2023-08-08T04:12:09.681Z,52.59
2023-08-08T04:14:11.521Z,52.54
2023-08-08T04:16:13.191Z,52.63
2023-08-08T04:18:14.919Z,52.56
2023-08-08T04:20:16.850Z,52.74
2023-08-08T04:22:18.505Z,52.41
2023-08-08T04:24:20.225Z,52.48
2023-08-08T04:26:21.822Z,52.64
2023-08-08T04:28:23.657Z,52.67
2023-08-08T04:30:25.293Z,52.75
2023-08-08T04:32:27.054Z,52.83
2023-08-08T04:34:28.758Z,52.44
2023-08-08T04:36:30.658Z,52.81
2023-08-08T04:38:32.273Z,52.55
2023-08-08T04:40:35.125Z,52.73
2023-08-08T04:42:37.549Z,52.83
2023-08-08T04:44:39.184Z,52.54
2023-08-08T04:46:40.908Z,52.70
2023-08-08T04:48:42.685Z,52.80
2023-08-08T04:50:44.333Z,52.49
2023-08-08T04:52:45.970Z,52.74
2023-08-08T04:54:47.541Z,52.82
2023-08-08T04:56:49.187Z,52.64
2023-08-08T04:58:50.783Z,52.56
2023-08-08T05:00:52.722Z,52.67
2023-08-08T05:02:54.432Z,52.80
2023-08-08T05:04:56.241Z,52.94
2023-08-08T05:06:58.748Z,52.68
2023-08-08T05:09:00.309Z,52.94
2023-08-08T05:11:01.912Z,52.86
2023-08-08T05:13:03.813Z,52.59
2023-08-08T05:15:06.137Z,52.67
2023-08-08T05:17:07.753Z,52.66
2023-08-08T05:19:09.380Z,52.74
2023-08-08T05:21:11.089Z,52.68
2023-08-08T05:23:12.888Z,52.86
2023-08-08T05:25:14.539Z,52.60
2023-08-08T05:27:16.218Z,52.47
2023-08-08T05:29:17.828Z,52.55
2023-08-08T05:31:19.501Z,52.61
2023-08-08T05:33:21.337Z,52.75
2023-08-08T05:35:22.983Z,52.83
2023-08-08T05:37:25.523Z,52.79
2023-08-08T05:39:27.156Z,52.89
2023-08-08T05:41:28.721Z,53.29
2023-08-08T05:43:31.090Z,53.03
2023-08-08T05:45:33.176Z,53.32
2023-08-08T05:47:35.059Z,53.13
2023-08-08T05:49:36.958Z,53.19
2023-08-08T05:51:38.658Z,53.38
2023-08-08T05:53:40.332Z,53.56
2023-08-08T05:55:43.555Z,53.37
2023-08-08T05:57:45.096Z,53.56
2023-08-08T05:59:46.779Z,53.27
2023-08-08T06:01:48.462Z,53.09
2023-08-08T06:03:50.170Z,53.13
2023-08-08T06:05:51.901Z,53.11
2023-08-08T06:07:53.704Z,53.30
2023-08-08T06:09:55.278Z,53.36
2023-08-08T06:11:56.881Z,53.42
2023-08-08T06:13:58.500Z,53.10
2023-08-08T06:16:02.640Z,53.16
2023-08-08T06:18:04.559Z,53.30
2023-08-08T06:20:07.984Z,53.10
2023-08-08T06:22:10.093Z,53.42
2023-08-08T06:24:11.742Z,53.54
2023-08-08T06:26:13.542Z,53.28
2023-08-08T06:28:15.409Z,53.43
2023-08-08T06:30:17.100Z,53.31
2023-08-08T06:32:18.813Z,53.06
2023-08-08T06:34:20.594Z,53.24
2023-08-08T06:36:22.508Z,53.21
2023-08-08T06:38:24.189Z,53.16
2023-08-08T06:40:26.168Z,52.95
2023-08-08T06:42:27.801Z,53.28
2023-08-08T06:44:29.386Z,53.06
2023-08-08T06:46:31.447Z,52.98
2023-08-08T06:48:33.133Z,53.01
2023-08-08T06:50:34.775Z,53.27
2023-08-08T06:52:36.398Z,53.11
2023-08-08T06:54:38.111Z,53.04
2023-08-08T06:56:39.722Z,53.04
2023-08-08T06:58:41.362Z,53.05
2023-08-08T07:00:43.095Z,53.16
2023-08-08T07:02:44.802Z,53.31
2023-08-08T07:04:46.472Z,52.91
2023-08-08T07:06:48.042Z,53.23
2023-08-08T07:08:49.680Z,53.06
2023-08-08T07:10:51.428Z,53.20
2023-08-08T07:12:53.179Z,53.11
2023-08-08T07:14:55.604Z,53.00
2023-08-08T07:16:57.452Z,52.92
2023-08-08T07:18:59.242Z,52.92
2023-08-08T07:21:01.700Z,52.85
2023-08-08T07:23:03.687Z,52.95
2023-08-08T07:25:06.964Z,52.96
2023-08-08T07:27:08.681Z,52.90
2023-08-08T07:29:10.301Z,52.81
2023-08-08T07:31:12.045Z,52.76
2023-08-08T07:33:14.771Z,52.71
2023-08-08T07:35:16.684Z,52.60
2023-08-08T07:37:19.301Z,52.67
2023-08-08T07:39:21.121Z,52.77
2023-08-08T07:41:25.254Z,52.54
2023-08-08T07:43:27.817Z,52.64
2023-08-08T07:45:29.464Z,52.45
2023-08-08T07:47:31.160Z,52.61
2023-08-08T07:49:32.796Z,52.56
2023-08-08T07:51:34.413Z,52.48
2023-08-08T07:53:36.017Z,52.46
2023-08-08T07:55:37.714Z,52.16
2023-08-08T07:57:39.408Z,52.42
2023-08-08T07:59:41.346Z,52.04
2023-08-08T08:01:43.770Z,52.23
2023-08-08T08:03:46.148Z,52.41
2023-08-08T08:05:48.035Z,52.25
2023-08-08T08:07:49.639Z,52.02
2023-08-08T08:09:51.289Z,52.22
2023-08-08T08:11:52.942Z,52.12
2023-08-08T08:13:54.647Z,51.84
2023-08-08T08:15:56.555Z,51.97
2023-08-08T08:17:58.200Z,51.85
2023-08-08T08:19:59.928Z,51.88
2023-08-08T08:22:01.706Z,51.98
2023-08-08T08:24:04.708Z,52.01
2023-08-08T08:26:06.438Z,51.81
2023-08-08T08:28:08.977Z,51.92
2023-08-08T08:30:11.396Z,51.66
2023-08-08T08:32:13.129Z,51.84
2023-08-08T08:34:15.041Z,51.99
2023-08-08T08:36:16.891Z,51.97
2023-08-08T08:38:18.443Z,51.71
2023-08-08T08:40:20.344Z,51.86
2023-08-08T08:42:22.189Z,51.78
2023-08-08T08:44:24.125Z,51.88
2023-08-08T08:46:27.311Z,51.52
2023-08-08T08:48:29.401Z,51.73
2023-08-08T08:50:31.882Z,51.69
2023-08-08T08:52:33.936Z,51.71
2023-08-08T08:54:36.234Z,51.35
2023-08-08T08:56:37.979Z,51.40
2023-08-08T08:58:39.762Z,51.43
2023-08-08T09:00:41.528Z,51.56
2023-08-08T09:02:43.257Z,51.56
2023-08-08T09:04:46.550Z,51.35
2023-08-08T09:06:49.354Z,51.09
2023-08-08T09:08:53.501Z,51.13
2023-08-08T09:10:57.781Z,51.23
2023-08-08T09:12:59.430Z,51.00
2023-08-08T09:15:02.397Z,50.89
2023-08-08T09:17:04.388Z,50.80
2023-08-08T09:19:06.035Z,50.38
2023-08-08T09:21:07.739Z,50.77
2023-08-08T09:23:10.212Z,50.78
2023-08-08T09:25:13.051Z,50.58
2023-08-08T09:27:15.327Z,50.79
2023-08-08T09:29:16.960Z,50.93
2023-08-08T09:31:18.646Z,50.81
2023-08-08T09:33:20.277Z,50.83
2023-08-08T09:35:24.159Z,50.92
2023-08-08T09:37:26.983Z,50.81
2023-08-08T09:39:29.842Z,50.78
2023-08-08T09:41:31.656Z,50.84
2023-08-08T09:43:33.263Z,50.85
2023-08-08T09:45:45.636Z,50.58
2023-08-08T09:47:47.388Z,50.49
2023-08-08T09:49:49.314Z,50.43
2023-08-08T09:51:51.012Z,50.43
2023-08-08T09:53:52.744Z,50.33
2023-08-08T09:55:57.856Z,50.36
2023-08-08T09:58:02.223Z,50.33
2023-08-08T10:00:06.569Z,50.75
2023-08-08T10:02:14.737Z,50.47
2023-08-08T10:04:16.462Z,50.43
2023-08-08T10:06:18.143Z,50.34
2023-08-08T10:08:20.361Z,50.21
2023-08-08T10:10:22.359Z,50.45
2023-08-08T10:12:24.750Z,50.02
2023-08-08T10:14:31.644Z,50.05
2023-08-08T10:16:34.679Z,49.98
2023-08-08T10:18:36.645Z,50.36
2023-08-08T10:20:38.676Z,50.23
2023-08-08T10:22:44.562Z,50.26
2023-08-08T10:24:49.203Z,50.00
2023-08-08T10:26:54.812Z,50.12
2023-08-08T10:28:59.879Z,50.24
2023-08-08T10:31:09.576Z,50.00
2023-08-08T10:33:22.217Z,49.81
2023-08-08T10:35:25.792Z,49.96
2023-08-08T10:37:27.491Z,49.65
2023-08-08T10:39:30.758Z,49.94
2023-08-08T10:41:32.343Z,49.72
2023-08-08T10:43:34.637Z,50.04
2023-08-08T10:45:36.430Z,49.80
2023-08-08T10:47:38.346Z,49.82
2023-08-08T10:49:42.943Z,49.96
2023-08-08T10:51:48.104Z,49.75
2023-08-08T10:53:53.551Z,50.03
2023-08-08T10:56:03.994Z,49.94
2023-08-08T10:58:07.236Z,50.01
2023-08-08T11:00:19.448Z,49.76
2023-08-08T11:02:21.687Z,49.87
2023-08-08T11:04:25.272Z,49.80
2023-08-08T11:06:26.982Z,49.66
2023-08-08T11:08:31.486Z,49.69
2023-08-08T11:10:40.293Z,49.33
2023-08-08T11:12:42.003Z,49.66
2023-08-08T11:14:44.599Z,49.37
2023-08-08T11:16:47.674Z,49.50
2023-08-08T11:18:49.575Z,49.02
2023-08-08T11:20:52.479Z,49.25
2023-08-08T11:22:56.572Z,49.37
2023-08-08T11:25:04.194Z,49.28
2023-08-08T11:27:05.986Z,49.24
2023-08-08T11:29:07.761Z,51.07
2023-08-08T11:31:09.412Z,51.75
2023-08-08T11:33:15.650Z,51.18
2023-08-08T11:35:25.289Z,51.00
2023-08-08T11:37:27.155Z,50.85
2023-08-08T11:39:30.205Z,50.90
2023-08-08T11:41:31.814Z,50.91
2023-08-08T11:43:33.518Z,50.76
2023-08-08T11:45:35.552Z,49.84
2023-08-08T11:47:38.753Z,49.42
2023-08-08T11:49:43.325Z,49.06
2023-08-08T11:51:46.636Z,49.27
2023-08-08T11:53:54.946Z,48.78
2023-08-08T11:55:58.350Z,48.64
2023-08-08T11:58:03.015Z,48.47
2023-08-08T12:00:09.089Z,48.23
2023-08-08T12:02:11.010Z,48.44
2023-08-08T12:04:12.706Z,48.21
2023-08-08T12:06:17.638Z,48.07
2023-08-08T12:08:20.744Z,47.81
2023-08-08T12:10:23.593Z,47.65
2023-08-08T12:12:27.332Z,47.71
2023-08-08T12:14:29.265Z,47.69
2023-08-08T12:16:33.925Z,47.93
2023-08-08T12:18:38.681Z,47.60
2023-08-08T12:20:40.438Z,47.31
2023-08-08T12:22:42.173Z,47.15
2023-08-08T12:24:43.748Z,47.57
2023-08-08T12:26:45.387Z,47.32
2023-08-08T12:28:46.963Z,46.90
2023-08-08T12:30:48.563Z,46.38
2023-08-08T12:32:50.443Z,46.64
2023-08-08T12:34:52.216Z,46.51
2023-08-08T12:36:53.782Z,47.62
2023-08-08T12:38:55.623Z,47.01
2023-08-08T12:40:57.768Z,46.76
2023-08-08T12:42:59.566Z,47.11
2023-08-08T12:45:01.384Z,47.30
2023-08-08T12:47:03.268Z,46.92
2023-08-08T12:49:05.236Z,46.96
2023-08-08T12:51:08.607Z,46.87
2023-08-08T12:53:10.432Z,47.19
2023-08-08T12:55:12.961Z,46.96
2023-08-08T12:57:14.646Z,47.28
2023-08-08T12:59:16.351Z,47.38
2023-08-08T13:01:18.162Z,47.16
2023-08-08T13:03:19.945Z,46.59
2023-08-08T13:05:22.036Z,46.81
2023-08-08T13:07:24.054Z,47.31
2023-08-08T13:09:25.666Z,46.56
2023-08-08T13:11:27.806Z,46.30
2023-08-08T13:13:29.519Z,46.41
2023-08-08T13:15:31.245Z,46.81
2023-08-08T13:17:32.965Z,47.30
2023-08-08T13:19:34.541Z,46.99
2023-08-08T13:21:36.288Z,47.77
2023-08-08T13:23:37.966Z,47.39
2023-08-08T13:25:39.641Z,46.76
2023-08-08T13:27:43.564Z,46.72
2023-08-08T13:29:45.232Z,46.70
2023-08-08T13:31:46.888Z,46.54
2023-08-08T13:33:48.506Z,46.72
2023-08-08T13:35:50.103Z,46.49
2023-08-08T13:37:53.279Z,46.62
2023-08-08T13:39:55.021Z,46.71
2023-08-08T13:41:56.773Z,46.27
2023-08-08T13:43:58.444Z,45.91
2023-08-08T13:46:01.361Z,45.42
2023-08-08T13:48:03.432Z,45.47
2023-08-08T13:50:05.666Z,46.01
2023-08-08T13:52:07.268Z,46.14
2023-08-08T13:54:08.809Z,45.98
2023-08-08T13:56:12.014Z,46.16
2023-08-08T13:58:13.794Z,45.79
2023-08-08T14:00:15.821Z,46.24
2023-08-08T14:02:19.441Z,46.00
2023-08-08T14:04:21.040Z,45.95
2023-08-08T14:06:22.831Z,46.16
2023-08-08T14:08:24.543Z,46.00
2023-08-08T14:10:26.540Z,45.98
2023-08-08T14:12:28.197Z,46.01
2023-08-08T14:14:29.883Z,45.90
2023-08-08T14:16:31.572Z,45.76
2023-08-08T14:18:33.317Z,44.49
2023-08-08T14:20:35.194Z,44.75
2023-08-08T14:22:36.872Z,44.99
2023-08-08T14:24:38.505Z,45.31
2023-08-08T14:26:40.138Z,45.41
2023-08-08T14:28:41.904Z,44.98
2023-08-08T14:30:43.766Z,45.09
2023-08-08T14:32:45.411Z,43.53
2023-08-08T14:34:47.064Z,44.75
2023-08-08T14:36:48.654Z,45.45
2023-08-08T14:38:50.241Z,44.58
2023-08-08T14:40:53.675Z,44.80
2023-08-08T14:42:56.504Z,44.47
2023-08-08T14:44:58.424Z,44.80
2023-08-08T14:47:00.204Z,44.56
2023-08-08T14:49:02.345Z,44.27
2023-08-08T14:51:04.359Z,44.63
2023-08-08T14:53:06.945Z,44.93
2023-08-08T14:55:09.266Z,44.43
2023-08-08T14:57:10.892Z,44.83
2023-08-08T14:59:12.575Z,44.47
2023-08-08T15:01:14.273Z,44.33
2023-08-08T15:03:16.141Z,44.39
2023-08-08T15:05:17.811Z,43.85
2023-08-08T15:07:19.443Z,44.47
2023-08-08T15:09:21.022Z,43.82
2023-08-08T15:11:22.748Z,44.41
2023-08-08T15:13:24.520Z,44.45
2023-08-08T15:15:28.546Z,44.40
2023-08-08T15:17:30.227Z,44.08
2023-08-08T15:19:32.020Z,42.96
2023-08-08T15:21:33.618Z,42.95
2023-08-08T15:23:35.232Z,43.55
2023-08-08T15:25:42.824Z,43.26
2023-08-08T15:27:44.515Z,42.82
2023-08-08T15:29:46.597Z,43.44
2023-08-08T15:31:48.401Z,42.88
2023-08-08T15:33:50.058Z,42.91
2023-08-08T15:35:51.704Z,42.58
2023-08-08T15:37:53.361Z,42.77
2023-08-08T15:39:55.188Z,42.92
2023-08-08T15:41:56.796Z,42.66
2023-08-08T15:43:58.542Z,42.19
2023-08-08T15:46:00.576Z,42.25
2023-08-08T15:48:03.034Z,41.77
2023-08-08T15:50:05.402Z,41.86
2023-08-08T15:52:07.132Z,41.87
2023-08-08T15:54:08.877Z,42.26
2023-08-08T15:56:10.535Z,42.68
2023-08-08T15:58:12.649Z,42.14
2023-08-08T16:00:16.584Z,42.11
2023-08-08T16:02:19.257Z,42.06
2023-08-08T16:04:21.059Z,42.30
2023-08-08T16:06:22.701Z,42.22
2023-08-08T16:08:24.406Z,41.89
2023-08-08T16:10:26.170Z,42.38
2023-08-08T16:12:27.919Z,42.36
2023-08-08T16:14:29.607Z,41.91
2023-08-08T16:16:33.337Z,42.44
2023-08-08T16:18:35.050Z,42.49
2023-08-08T16:20:36.834Z,42.52
2023-08-08T16:22:38.760Z,42.44
2023-08-08T16:24:40.360Z,42.41
2023-08-08T16:26:41.990Z,42.19
2023-08-08T16:28:43.566Z,42.55
2023-08-08T16:30:45.194Z,42.49
2023-08-08T16:32:46.884Z,42.20
2023-08-08T16:34:48.608Z,42.45
2023-08-08T16:36:50.351Z,42.10
2023-08-08T16:38:53.631Z,42.08
2023-08-08T16:40:56.985Z,41.78
2023-08-08T16:42:58.989Z,42.06
2023-08-08T16:47:07.775Z,41.84
2023-08-08T16:49:09.474Z,41.76
2023-08-08T16:51:11.042Z,41.84
2023-08-08T16:55:19.165Z,41.85
2023-08-08T16:57:21.022Z,41.63
2023-08-08T16:59:22.810Z,41.21
2023-08-08T17:01:24.590Z,40.97
2023-08-08T17:03:26.826Z,41.50
2023-08-08T17:05:28.586Z,41.86
2023-08-08T17:07:30.520Z,41.63
2023-08-08T17:09:33.188Z,41.68
2023-08-08T17:11:35.261Z,41.92
2023-08-08T17:13:36.799Z,42.01
2023-08-08T17:15:38.472Z,41.95
2023-08-08T17:17:40.119Z,41.77
2023-08-08T17:19:42.002Z,41.95
2023-08-08T17:21:44.126Z,41.88
2023-08-08T17:23:46.125Z,41.57
2023-08-08T17:25:47.976Z,41.46
2023-08-08T17:27:49.657Z,41.43
2023-08-08T17:29:51.286Z,41.50
2023-08-08T17:31:52.877Z,41.66
2023-08-08T17:33:55.509Z,41.33
2023-08-08T17:35:57.210Z,41.28
2023-08-08T17:37:59.518Z,41.54
2023-08-08T17:40:01.148Z,41.93
2023-08-08T17:42:03.516Z,41.67
2023-08-08T17:44:06.955Z,42.02
2023-08-08T17:46:09.939Z,41.87
2023-08-08T17:48:12.007Z,41.83
2023-08-08T17:50:13.662Z,41.90
2023-08-08T17:52:15.291Z,42.23
2023-08-08T17:54:16.961Z,43.36
2023-08-08T17:56:18.632Z,43.03
2023-08-08T17:58:20.414Z,44.00
2023-08-08T18:00:22.753Z,43.80
2023-08-08T18:02:25.067Z,43.24
2023-08-08T18:04:26.755Z,43.41
2023-08-08T18:06:29.588Z,42.82
2023-08-08T18:08:31.205Z,43.36
2023-08-08T18:10:35.877Z,42.70
2023-08-08T18:12:37.757Z,43.11
2023-08-08T18:14:39.864Z,43.13
2023-08-08T18:16:41.623Z,43.21
2023-08-08T18:18:43.398Z,43.10
2023-08-08T18:20:45.143Z,42.74
2023-08-08T18:22:47.147Z,42.99
2023-08-08T18:24:49.263Z,42.77
2023-08-08T18:26:51.002Z,43.01
2023-08-08T18:28:52.699Z,42.80
2023-08-08T18:30:54.339Z,42.89
2023-08-08T18:32:56.396Z,42.83
2023-08-08T18:34:58.117Z,42.80
2023-08-08T18:36:59.680Z,42.53
2023-08-08T18:39:01.456Z,42.89
2023-08-08T18:41:03.039Z,42.97
2023-08-08T18:43:04.664Z,42.78
2023-08-08T18:45:07.050Z,42.78
2023-08-08T18:47:08.699Z,42.97
2023-08-08T18:49:10.594Z,43.08
2023-08-08T18:51:12.217Z,42.93
2023-08-08T18:53:17.739Z,43.08
2023-08-08T18:55:19.633Z,43.10
2023-08-08T18:57:21.194Z,43.30
2023-08-08T18:59:23.710Z,43.35
2023-08-08T19:01:25.397Z,43.62
2023-08-08T19:03:27.237Z,43.43
2023-08-08T19:05:29.365Z,43.23
2023-08-08T19:07:30.990Z,43.34
2023-08-08T19:09:32.573Z,43.70
2023-08-08T19:11:34.269Z,43.44
2023-08-08T19:13:35.894Z,43.51
2023-08-08T19:15:37.513Z,43.58
2023-08-08T19:17:53.508Z,43.56
2023-08-08T19:19:56.968Z,43.85
2023-08-08T19:21:58.850Z,44.39
2023-08-08T19:24:00.864Z,43.98
2023-08-08T19:26:03.168Z,44.13
2023-08-08T19:28:04.872Z,44.45
2023-08-08T19:30:09.542Z,44.58
2023-08-08T19:32:12.317Z,44.14
2023-08-08T19:34:14.095Z,44.13
2023-08-08T19:36:16.049Z,44.11
2023-08-08T19:38:17.716Z,43.92
2023-08-08T19:40:20.100Z,44.03
2023-08-08T19:42:21.674Z,43.94
2023-08-08T19:44:23.328Z,44.19
2023-08-08T19:46:25.151Z,44.50
2023-08-08T19:48:26.863Z,44.32
2023-08-08T19:50:28.458Z,44.65
2023-08-08T19:52:30.070Z,44.53
2023-08-08T19:54:31.708Z,44.76
2023-08-08T19:56:33.385Z,44.88
2023-08-08T19:58:35.855Z,45.00
2023-08-08T20:00:37.464Z,44.99
2023-08-08T20:02:40.375Z,45.16
2023-08-08T20:04:41.997Z,44.84
2023-08-08T20:06:44.029Z,45.22
2023-08-08T20:08:45.722Z,45.11
2023-08-08T20:10:47.326Z,45.34
2023-08-08T20:12:49.063Z,45.24
2023-08-08T20:14:50.717Z,45.20
2023-08-08T20:16:52.374Z,45.44
2023-08-08T20:18:54.051Z,45.24
2023-08-08T20:20:55.771Z,45.68
2023-08-08T20:22:57.512Z,45.66
2023-08-08T20:24:59.110Z,45.81
2023-08-08T20:27:02.554Z,45.56
2023-08-08T20:29:04.535Z,45.60
2023-08-08T20:31:06.212Z,45.72
2023-08-08T20:33:08.062Z,45.81
2023-08-08T20:35:10.136Z,46.01
2023-08-08T20:37:11.822Z,45.98
2023-08-08T20:39:16.250Z,45.93
2023-08-08T20:41:18.970Z,46.19
2023-08-08T20:43:20.591Z,46.19
2023-08-08T20:45:22.218Z,46.08
2023-08-08T20:47:23.820Z,46.17
2023-08-08T20:49:25.585Z,46.24
2023-08-08T20:51:27.239Z,46.32
2023-08-08T20:53:29.297Z,46.45
2023-08-08T20:55:30.952Z,46.58
2023-08-08T20:57:32.501Z,46.39
2023-08-08T20:59:34.232Z,46.47
2023-08-08T21:01:35.997Z,46.67
2023-08-08T21:03:37.830Z,46.72
2023-08-08T21:05:39.495Z,46.63
2023-08-08T21:07:41.145Z,46.66
2023-08-08T21:09:42.854Z,46.87
2023-08-08T21:11:44.663Z,46.83
2023-08-08T21:13:46.447Z,46.80
2023-08-08T21:15:48.374Z,46.84
2023-08-08T21:17:50.217Z,46.92
2023-08-08T21:19:53.765Z,46.77
2023-08-08T21:21:58.302Z,46.98
2023-08-08T21:24:00.040Z,47.12
2023-08-08T21:26:01.868Z,47.06
2023-08-08T21:28:03.653Z,47.12
2023-08-08T21:30:08.198Z,47.17
2023-08-08T21:32:10.046Z,47.41
2023-08-08T21:34:12.347Z,46.89
2023-08-08T21:36:14.010Z,47.19
2023-08-08T21:38:15.607Z,47.27
2023-08-08T21:40:17.607Z,47.37
2023-08-08T21:42:19.531Z,47.52
2023-08-08T21:44:21.248Z,47.32
2023-08-08T21:46:22.944Z,47.58
2023-08-08T21:48:24.517Z,47.61
2023-08-08T21:50:26.243Z,47.57
2023-08-08T21:52:27.950Z,47.53
2023-08-08T21:54:29.897Z,47.26
2023-08-08T21:56:31.668Z,47.63
2023-08-08T21:58:33.762Z,47.64
2023-08-08T22:00:35.531Z,47.46
2023-08-08T22:02:37.149Z,47.61
2023-08-08T22:04:40.434Z,47.71
2023-08-08T22:06:43.420Z,47.57
2023-08-08T22:08:44.965Z,47.87
2023-08-08T22:10:46.692Z,47.64
2023-08-08T22:12:49.419Z,47.75
2023-08-08T22:14:51.042Z,47.91
2023-08-08T22:16:52.637Z,47.96
2023-08-08T22:18:55.477Z,47.96
2023-08-08T22:20:57.120Z,47.91
2023-08-08T22:23:09.586Z,47.89
2023-08-08T22:25:15.695Z,47.93
2023-08-08T22:27:17.439Z,47.80
2023-08-08T22:29:19.083Z,48.02
2023-08-08T22:31:20.786Z,47.93
2023-08-08T22:33:23.117Z,48.01
2023-08-08T22:35:26.134Z,48.13
2023-08-08T22:37:27.957Z,48.08
2023-08-08T22:39:29.695Z,48.33
2023-08-08T22:41:31.366Z,48.04
2023-08-08T22:43:33.262Z,48.35
2023-08-08T22:45:35.198Z,48.05
2023-08-08T22:47:37.951Z,48.12
2023-08-08T22:49:39.614Z,47.99
2023-08-08T22:51:41.249Z,48.24
2023-08-08T22:53:43.802Z,48.22
2023-08-08T22:55:45.743Z,48.41
2023-08-08T22:57:47.417Z,48.40
2023-08-08T22:59:49.021Z,48.31
2023-08-08T23:01:50.968Z,48.20
2023-08-08T23:03:53.051Z,48.32
2023-08-08T23:05:54.703Z,48.38
2023-08-08T23:07:56.341Z,48.40
2023-08-08T23:09:58.043Z,48.44
2023-08-08T23:11:59.712Z,48.49
2023-08-08T23:14:01.314Z,48.47
2023-08-08T23:16:03.437Z,48.50
2023-08-08T23:18:05.220Z,48.60
2023-08-08T23:20:07.567Z,48.59
2023-08-08T23:22:09.203Z,48.63
2023-08-08T23:24:11.583Z,48.65
2023-08-08T23:26:13.166Z,48.62
2023-08-08T23:28:18.053Z,48.62
2023-08-08T23:30:19.750Z,48.83
2023-08-08T23:32:21.338Z,48.81
2023-08-08T23:34:23.041Z,48.83
2023-08-08T23:36:25.046Z,48.55
2023-08-08T23:38:26.798Z,48.75
2023-08-08T23:40:28.422Z,48.88
2023-08-08T23:42:29.997Z,48.82
2023-08-08T23:44:31.726Z,48.83
2023-08-08T23:46:33.311Z,48.90
2023-08-08T23:48:35.086Z,48.65
2023-08-08T23:50:36.723Z,48.81
2023-08-08T23:52:38.360Z,48.87
2023-08-08T23:54:40.025Z,48.87
2023-08-08T23:56:41.789Z,49.04
2023-08-08T23:58:43.420Z,48.87
